Terminal Aerodrome Forecast
Issued by NWS Jackson, KY

Home | Current Version | Previous Version | Text Only | Print | Product List | Glossary On
Versions: 1 2 3 4 5 6 7 8 9 10 11 12 13 14 15 16 17 18
000
FTUS43 KJKL 171739
TAFJKL
TAF
KJKL 171739Z 1718/1818 22010G23KT P6SM TS VCSH OVC020CB
     FM171900 23010KT P6SM VCSH OVC015
     FM180000 26006KT P6SM VCSH OVC015
     FM180600 27004KT 3SM -SHRA BR OVC010
     FM180900 27004KT 3SM -SHRA BR OVC008
     FM181200 27004KT P6SM OVC015=

USA.gov is the U.S. government's official web portal to all federal, state and local government web resources and services.